createdAt,value
2023-01-21T00:03:57.226Z,22.00
2023-01-21T00:09:01.909Z,24.00
2023-01-21T00:14:06.610Z,18.67
2023-01-21T00:19:11.300Z,21.50
2023-01-21T00:24:15.912Z,18.00
2023-01-21T00:29:20.593Z,21.00
2023-01-21T00:34:25.158Z,26.00
2023-01-21T00:39:29.770Z,20.75
2023-01-21T00:44:34.331Z,29.67
2023-01-21T00:49:38.964Z,38.50
2023-01-21T00:54:43.516Z,21.00
2023-01-21T00:59:48.291Z,26.50
2023-01-21T01:04:52.882Z,28.33
2023-01-21T01:09:57.427Z,39.00
2023-01-21T01:15:01.986Z,28.00
2023-01-21T01:20:08.678Z,33.00
2023-01-21T01:25:13.567Z,29.50
2023-01-21T01:30:19.056Z,29.67
2023-01-21T01:35:23.748Z,35.75
2023-01-21T01:40:28.300Z,31.00
2023-01-21T01:45:32.919Z,28.25
2023-01-21T01:50:40.851Z,27.33
2023-01-21T01:55:45.764Z,32.67
2023-01-21T02:00:50.760Z,29.00
2023-01-21T02:05:55.781Z,36.50
2023-01-21T02:11:02.146Z,40.50
2023-01-21T02:16:23.605Z,33.25
2023-01-21T02:21:55.776Z,25.33
2023-01-21T02:27:18.547Z,32.00
2023-01-21T02:32:37.709Z,25.00
2023-01-21T02:37:58.653Z,27.67
2023-01-21T02:43:03.224Z,26.50
2023-01-21T02:48:19.857Z,28.67
2023-01-21T02:53:33.179Z,26.75
2023-01-21T03:03:46.328Z,25.00
2023-01-21T03:09:01.458Z,24.00
2023-01-21T03:14:57.174Z,24.75
2023-01-21T03:20:13.495Z,24.75
2023-01-21T03:25:19.305Z,23.50
2023-01-21T03:30:27.695Z,24.33
2023-01-21T03:35:38.876Z,24.00
2023-01-21T03:41:15.400Z,24.25
2023-01-21T03:46:28.879Z,24.00
2023-01-21T03:51:41.709Z,27.75
2023-01-21T03:56:48.125Z,25.33
2023-01-21T04:01:53.083Z,31.50
2023-01-21T04:06:58.126Z,30.00
2023-01-21T04:12:03.275Z,24.25
2023-01-21T04:17:08.429Z,24.00
2023-01-21T04:27:18.353Z,27.25
2023-01-21T04:32:23.333Z,22.33
2023-01-21T04:37:28.446Z,20.33
2023-01-21T04:42:33.067Z,21.50
2023-01-21T04:47:38.255Z,25.00
2023-01-21T04:52:44.969Z,23.50
2023-01-21T04:57:50.365Z,24.00
2023-01-21T05:02:55.505Z,20.75
2023-01-21T05:08:00.665Z,27.33
2023-01-21T05:13:05.895Z,17.50
2023-01-21T05:18:10.978Z,26.33
2023-01-21T05:23:16.008Z,18.00
2023-01-21T05:28:22.302Z,16.25
2023-01-21T05:33:32.364Z,25.25
2023-01-21T05:38:37.480Z,22.00
2023-01-21T05:43:42.575Z,27.00
2023-01-21T05:48:47.499Z,18.00
2023-01-21T05:53:52.652Z,23.67
2023-01-21T05:58:58.659Z,24.67
2023-01-21T06:04:03.734Z,23.00
2023-01-21T06:09:08.867Z,22.25
2023-01-21T06:19:19.707Z,19.00
2023-01-21T06:24:27.348Z,16.00
2023-01-21T06:29:32.370Z,15.00
2023-01-21T06:34:37.427Z,23.50
2023-01-21T06:39:42.539Z,20.00
2023-01-21T06:44:49.204Z,15.50
2023-01-21T06:49:54.305Z,16.00
2023-01-21T06:54:59.256Z,31.00
2023-01-21T07:00:04.448Z,25.75
2023-01-21T07:05:09.893Z,22.33
2023-01-21T07:10:14.676Z,23.67
2023-01-21T07:15:20.187Z,25.00
2023-01-21T07:20:24.968Z,13.67
2023-01-21T07:25:30.021Z,27.33
2023-01-21T07:30:35.318Z,15.00
2023-01-21T07:35:40.762Z,28.75
2023-01-21T07:40:46.048Z,20.50
2023-01-21T07:45:51.077Z,18.00
2023-01-21T07:51:02.099Z,24.50
2023-01-21T07:56:09.245Z,26.50
2023-01-21T08:06:18.591Z,18.50
2023-01-21T08:11:23.922Z,20.00
2023-01-21T08:16:28.933Z,25.50
2023-01-21T08:21:33.807Z,14.75
2023-01-21T08:26:38.768Z,22.50
2023-01-21T08:31:43.776Z,28.00
2023-01-21T08:36:48.852Z,23.33
2023-01-21T08:41:53.780Z,21.00
2023-01-21T08:46:58.319Z,25.00
2023-01-21T08:52:03.079Z,22.33
2023-01-21T08:57:08.503Z,19.33
2023-01-21T09:02:13.923Z,22.50
2023-01-21T09:07:18.953Z,24.75
2023-01-21T09:12:23.902Z,29.50
2023-01-21T09:17:29.869Z,29.67
2023-01-21T09:22:34.856Z,29.33
2023-01-21T09:27:40.106Z,24.33
2023-01-21T09:32:45.038Z,25.33
2023-01-21T09:37:49.979Z,39.50
2023-01-21T09:42:55.074Z,48.00
2023-01-21T09:48:01.673Z,45.00
2023-01-21T09:53:35.438Z,42.00
2023-01-21T09:58:51.812Z,36.50
2023-01-21T10:04:22.061Z,46.67
2023-01-21T10:09:45.268Z,112.33
2023-01-21T10:15:41.994Z,83.50
2023-01-21T10:21:36.548Z,79.25
2023-01-21T10:26:43.209Z,45.50
2023-01-21T10:32:12.003Z,42.00
2023-01-21T10:37:22.268Z,70.00
2023-01-21T10:43:07.011Z,47.00
2023-01-21T10:48:49.420Z,39.50
2023-01-21T10:54:38.597Z,36.00
2023-01-21T10:59:44.407Z,34.33
2023-01-21T11:04:49.384Z,31.67
2023-01-21T11:09:54.957Z,31.75
2023-01-21T11:15:02.272Z,38.00
2023-01-21T11:20:31.118Z,47.33
2023-01-21T11:25:43.082Z,47.67
2023-01-21T11:30:51.543Z,42.33
2023-01-21T11:35:59.763Z,41.00
2023-01-21T11:41:26.314Z,36.25
2023-01-21T11:46:42.310Z,47.50
2023-01-21T11:51:49.838Z,50.00
2023-01-21T11:57:00.340Z,43.25
2023-01-21T12:02:26.414Z,45.75
2023-01-21T12:07:35.460Z,50.00
2023-01-21T12:13:18.751Z,45.00
2023-01-21T12:18:42.329Z,26.50
2023-01-21T12:24:02.415Z,38.33
2023-01-21T12:29:36.116Z,36.33
2023-01-21T12:35:14.345Z,41.67
2023-01-21T12:40:42.019Z,43.00
2023-01-21T12:51:12.813Z,38.50
2023-01-21T12:56:46.090Z,31.67
2023-01-21T13:01:59.555Z,39.25
2023-01-21T13:07:32.774Z,36.00
2023-01-21T13:12:41.117Z,40.33
2023-01-21T13:17:54.027Z,37.50
2023-01-21T13:23:36.819Z,40.33
2023-01-21T13:28:58.576Z,20.00
2023-01-21T13:34:28.745Z,28.50
2023-01-21T13:39:52.430Z,29.75
2023-01-21T13:45:17.830Z,26.00
2023-01-21T13:50:34.543Z,41.00
2023-01-21T13:56:16.284Z,45.00
2023-01-21T14:01:33.212Z,57.50
2023-01-21T14:06:57.094Z,50.00
2023-01-21T14:12:09.013Z,41.50
2023-01-21T14:17:45.071Z,40.33
2023-01-21T14:23:26.685Z,48.25
2023-01-21T14:28:46.748Z,52.00
2023-01-21T14:34:14.737Z,47.00
2023-01-21T14:39:23.303Z,50.00
2023-01-21T14:44:51.347Z,62.00
2023-01-21T14:49:59.080Z,41.25
2023-01-21T14:55:05.011Z,47.00
2023-01-21T15:00:28.004Z,54.50
2023-01-21T15:05:38.516Z,50.50
2023-01-21T15:10:43.958Z,50.00
2023-01-21T15:16:16.618Z,63.75
2023-01-21T15:21:39.689Z,47.25
2023-01-21T15:27:22.553Z,47.00
2023-01-21T15:32:53.214Z,50.00
2023-01-21T15:38:06.117Z,45.67
2023-01-21T15:43:45.411Z,49.00
2023-01-21T15:49:23.303Z,50.00
2023-01-21T15:54:51.639Z,50.00
2023-01-21T16:00:05.373Z,49.50
2023-01-21T16:05:19.997Z,52.25
2023-01-21T16:10:27.635Z,76.75
2023-01-21T16:16:06.003Z,77.00
2023-01-21T16:21:12.324Z,73.00
2023-01-21T16:26:31.963Z,54.25
2023-01-21T16:32:01.150Z,50.00
2023-01-21T16:37:29.008Z,50.00
2023-01-21T16:42:33.617Z,54.67
2023-01-21T16:47:40.360Z,63.75
2023-01-21T16:52:46.094Z,71.75
2023-01-21T16:57:52.924Z,76.25
2023-01-21T17:02:59.193Z,77.25
2023-01-21T17:08:11.225Z,66.25
2023-01-21T17:13:17.519Z,58.00
2023-01-21T17:23:38.329Z,64.50
2023-01-21T17:28:47.533Z,45.50
2023-01-21T17:34:12.570Z,33.25
2023-01-21T17:39:37.034Z,37.50
2023-01-21T17:44:47.023Z,34.75
2023-01-21T17:50:02.131Z,39.00
2023-01-21T17:55:28.873Z,27.00
2023-01-21T18:00:46.500Z,38.00
2023-01-21T18:05:52.311Z,46.33
2023-01-21T18:10:56.904Z,50.25
2023-01-21T18:16:01.584Z,46.67
2023-01-21T18:21:07.359Z,50.00
2023-01-21T18:26:26.961Z,49.50
2023-01-21T18:31:31.875Z,50.00
2023-01-21T18:36:37.709Z,39.00
2023-01-21T18:41:42.364Z,45.25
2023-01-21T18:46:47.364Z,48.67
2023-01-21T18:51:52.507Z,49.75
2023-01-21T18:56:57.089Z,49.00
2023-01-21T19:02:01.812Z,45.25
2023-01-21T19:07:17.424Z,44.33
2023-01-21T19:12:22.451Z,47.75
2023-01-21T19:17:34.032Z,47.50
2023-01-21T19:22:38.633Z,50.00
2023-01-21T19:27:47.327Z,41.00
2023-01-21T19:32:53.432Z,43.67
2023-01-21T19:37:58.087Z,41.67
2023-01-21T19:43:02.825Z,42.00
2023-01-21T19:48:17.364Z,41.75
2023-01-21T19:53:23.583Z,45.75
2023-01-21T19:58:32.057Z,45.00
2023-01-21T20:03:36.557Z,44.50
2023-01-21T20:08:41.066Z,46.50
2023-01-21T20:13:45.715Z,45.33
2023-01-21T20:18:51.083Z,47.50
2023-01-21T20:23:55.684Z,41.33
2023-01-21T20:29:04.151Z,44.75
2023-01-21T20:39:15.023Z,36.50
2023-01-21T20:49:24.656Z,44.00
2023-01-21T20:54:29.220Z,46.67
2023-01-21T20:59:35.673Z,38.50
2023-01-21T21:04:41.324Z,35.50
2023-01-21T21:09:45.953Z,43.75
2023-01-21T21:14:50.566Z,41.00
2023-01-21T21:19:55.270Z,39.00
2023-01-21T21:24:59.832Z,37.00
2023-01-21T21:30:05.285Z,40.00
2023-01-21T21:35:32.698Z,42.50
2023-01-21T21:40:37.522Z,42.33
2023-01-21T21:46:02.563Z,43.00
2023-01-21T21:51:11.918Z,47.33
2023-01-21T21:56:19.449Z,47.33
2023-01-21T22:01:30.474Z,45.75
2023-01-21T22:06:35.550Z,45.50
2023-01-21T22:11:40.335Z,42.25
2023-01-21T22:16:45.453Z,34.00
2023-01-21T22:21:50.042Z,41.33
2023-01-21T22:26:54.593Z,37.75
2023-01-21T22:31:59.066Z,42.00
2023-01-21T22:37:03.676Z,47.75
2023-01-21T22:42:08.301Z,43.33
2023-01-21T22:47:12.849Z,38.50
2023-01-21T22:52:17.503Z,43.00
2023-01-21T22:57:22.159Z,46.75
2023-01-21T23:02:27.782Z,32.25
2023-01-21T23:07:33.345Z,43.33
2023-01-21T23:12:37.908Z,42.75
2023-01-21T23:27:52.585Z,39.00
2023-01-21T23:32:57.094Z,43.00
2023-01-21T23:38:02.075Z,50.00
2023-01-21T23:43:06.586Z,50.00
2023-01-21T23:48:11.137Z,47.00
2023-01-21T23:53:15.715Z,32.25
2023-01-21T23:58:21.363Z,45.67
